Time;durP1;ratioP1;P1;durP2;ratioP2;P2;SDS_P1;SDS_P2;PMS_P1;PMS_P2;Temp;Humidity;BMP_temperature;BMP_pressure;BME280_temperature;BME280_humidity;BME280_pressure;Samples;Min_cycle;Max_cycle;Signal;HPM_P1;HPM_P2
2022/05/25 00:00:18;;;;;;;3.80;1.73;;;10.70;99.90;;;;;;5019167;28;20033;-61
2022/05/25 00:02:45;;;;;;;4.13;2.25;;;10.60;99.90;;;;;;5016486;28;20038;-59
2022/05/25 00:05:14;;;;;;;2.80;2.03;;;10.60;99.90;;;;;;5009170;28;20041;-59
2022/05/25 00:07:40;;;;;;;5.13;2.05;;;10.50;99.90;;;;;;4992546;28;20411;-60
2022/05/25 00:10:06;;;;;;;2.75;1.85;;;10.50;99.90;;;;;;5012511;28;20084;-60
2022/05/25 00:12:32;;;;;;;5.00;1.90;;;10.50;99.90;;;;;;5011948;28;20766;-61
2022/05/25 00:14:58;;;;;;;4.40;1.88;;;10.40;99.90;;;;;;5016954;28;20021;-59
2022/05/25 00:17:24;;;;;;;4.60;2.08;;;10.40;99.90;;;;;;5016092;28;20057;-61
2022/05/25 00:19:59;;;;;;;5.80;2.25;;;10.30;99.90;;;;;;5027594;28;20060;-61
2022/05/25 00:22:25;;;;;;;4.47;2.00;;;10.30;99.90;;;;;;5026347;28;20029;-60
2022/05/25 00:24:51;;;;;;;5.88;2.50;;;10.20;99.90;;;;;;5021539;28;20025;-60
2022/05/25 00:27:17;;;;;;;3.88;2.00;;;10.20;99.90;;;;;;5019542;28;20042;-60
2022/05/25 00:29:43;;;;;;;5.68;2.05;;;10.20;99.90;;;;;;5030658;28;20083;-60
2022/05/25 00:32:09;;;;;;;3.83;2.17;;;10.10;99.90;;;;;;5024412;28;20026;-61
2022/05/25 00:34:35;;;;;;;5.32;2.30;;;10.10;99.90;;;;;;5021599;28;20090;-60
2022/05/25 00:37:00;;;;;;;5.85;2.20;;;10.20;99.90;;;;;;5021040;28;20029;-61
2022/05/25 00:39:26;;;;;;;2.53;1.90;;;10.20;99.90;;;;;;5025987;28;20026;-61
2022/05/25 00:41:52;;;;;;;3.95;2.22;;;10.20;99.90;;;;;;5003282;28;20136;-61
2022/05/25 00:44:18;;;;;;;5.22;2.17;;;10.20;99.90;;;;;;5021981;28;22008;-60
2022/05/25 00:46:45;;;;;;;6.03;2.42;;;10.10;99.90;;;;;;5021233;28;20036;-58
2022/05/25 00:49:22;;;;;;;3.67;2.10;;;10.20;99.90;;;;;;5027385;28;20418;-60
2022/05/25 00:51:55;;;;;;;3.03;2.17;;;10.20;99.90;;;;;;5029004;28;20104;-59
2022/05/25 00:54:27;;;;;;;2.72;1.77;;;10.20;99.90;;;;;;5028237;28;20036;-60
2022/05/25 00:56:55;;;;;;;6.20;2.17;;;10.20;99.90;;;;;;5024507;28;20596;-60
2022/05/25 00:59:28;;;;;;;3.35;2.30;;;10.30;99.90;;;;;;5020654;28;20158;-61
2022/05/25 01:01:55;;;;;;;2.20;1.87;;;10.30;99.90;;;;;;5029936;28;20038;-60
2022/05/25 01:04:20;;;;;;;5.18;2.72;;;10.40;99.90;;;;;;5027058;28;20187;-61
2022/05/25 01:07:00;;;;;;;4.18;2.40;;;10.40;99.90;;;;;;5020825;28;20538;-60
2022/05/25 01:10:01;;;;;;;4.93;2.00;;;10.40;99.90;;;;;;5027177;28;20048;-58
2022/05/25 01:12:34;;;;;;;3.30;2.10;;;10.50;99.90;;;;;;5020233;28;20068;-59
2022/05/25 01:15:08;;;;;;;3.63;1.90;;;10.50;99.90;;;;;;5017351;28;20029;-60
2022/05/25 01:18:35;;;;;;;2.72;2.08;;;10.50;99.90;;;;;;5021121;28;20025;-60
2022/05/25 01:21:29;;;;;;;9.23;2.10;;;10.50;99.90;;;;;;4941625;28;20043;-60
2022/05/25 01:24:18;;;;;;;3.50;2.40;;;10.50;99.90;;;;;;4957116;28;20023;-61
2022/05/25 01:27:14;;;;;;;4.68;2.03;;;10.60;99.90;;;;;;5005279;28;21416;-55
2022/05/25 01:30:06;;;;;;;4.13;2.05;;;10.60;99.90;;;;;;5017842;28;20057;-61
2022/05/25 01:32:42;;;;;;;4.18;2.00;;;10.60;99.90;;;;;;5020908;28;20032;-60
2022/05/25 01:35:34;;;;;;;5.85;1.80;;;10.70;99.90;;;;;;5017481;28;20105;-61
2022/05/25 01:38:28;;;;;;;7.30;2.72;;;10.70;99.90;;;;;;5021805;28;20049;-61
2022/05/25 01:41:01;;;;;;;4.05;1.98;;;10.70;99.90;;;;;;5021414;28;20014;-60
2022/05/25 01:43:33;;;;;;;2.70;2.00;;;10.80;99.90;;;;;;5005885;28;20053;-61
2022/05/25 01:46:08;;;;;;;2.50;1.67;;;10.80;99.90;;;;;;5021253;28;20030;-60
2022/05/25 01:48:37;;;;;;;4.72;2.20;;;10.80;99.90;;;;;;5026376;28;20025;-59
2022/05/25 01:51:18;;;;;;;6.25;2.15;;;10.70;99.90;;;;;;5030891;28;20429;-60
2022/05/25 01:53:48;;;;;;;3.85;1.77;;;10.70;99.90;;;;;;5034531;28;20382;-60
2022/05/25 01:56:18;;;;;;;7.25;2.28;;;10.60;99.90;;;;;;5034770;28;20090;-60
2022/05/25 01:58:51;;;;;;;4.20;2.00;;;10.50;99.90;;;;;;5031012;28;20467;-60
2022/05/25 02:01:16;;;;;;;7.63;2.33;;;10.40;99.90;;;;;;5032949;28;20044;-60
2022/05/25 02:06:43;;;;;;;4.60;2.10;;;10.20;99.90;;;;;;5022761;28;20427;-59
2022/05/25 02:09:12;;;;;;;5.82;2.38;;;10.10;99.90;;;;;;5032179;28;20396;-61
2022/05/25 02:11:44;;;;;;;8.55;3.10;;;10.00;99.90;;;;;;5025181;28;20049;-60
2022/05/25 02:14:36;;;;;;;3.65;2.65;;;10.00;99.90;;;;;;5024111;28;20029;-61
2022/05/25 02:17:31;;;;;;;3.85;2.53;;;10.00;99.90;;;;;;5022922;28;20038;-61
2022/05/25 02:20:00;;;;;;;8.45;2.50;;;10.00;99.90;;;;;;5021127;28;20033;-61
2022/05/25 02:22:45;;;;;;;3.78;2.47;;;9.90;99.90;;;;;;5027745;28;20148;-61
2022/05/25 02:25:43;;;;;;;3.47;2.13;;;10.00;99.90;;;;;;5019074;28;20037;-60
2022/05/25 02:28:17;;;;;;;4.93;2.47;;;10.00;99.90;;;;;;5020628;28;20391;-61
2022/05/25 02:30:48;;;;;;;5.57;2.65;;;10.00;99.90;;;;;;5029939;28;20494;-61
2022/05/25 02:33:28;;;;;;;6.30;2.30;;;9.90;99.90;;;;;;5024521;28;20033;-60
2022/05/25 02:35:56;;;;;;;4.35;2.55;;;9.90;99.90;;;;;;5031663;28;20041;-60
2022/05/25 02:38:21;;;;;;;6.18;2.63;;;9.80;99.90;;;;;;5023560;28;20029;-60
2022/05/25 02:40:47;;;;;;;3.92;2.50;;;9.90;99.90;;;;;;5023773;28;20046;-59
2022/05/25 02:43:12;;;;;;;5.05;2.70;;;9.90;99.90;;;;;;5008900;28;20153;-61
2022/05/25 02:45:39;;;;;;;7.88;3.47;;;9.90;99.90;;;;;;5034571;28;20119;-60
2022/05/25 02:48:05;;;;;;;4.68;2.35;;;9.90;99.90;;;;;;5035170;28;20049;-61
2022/05/25 02:50:31;;;;;;;5.85;3.00;;;9.90;99.90;;;;;;5023133;28;20439;-61
2022/05/25 02:52:57;;;;;;;5.60;2.85;;;9.90;99.90;;;;;;5030257;28;20505;-61
2022/05/25 02:55:23;;;;;;;5.78;3.08;;;9.90;99.90;;;;;;5031705;28;20064;-61
2022/05/25 02:57:49;;;;;;;4.45;3.03;;;9.90;99.90;;;;;;5030592;28;20564;-60
2022/05/25 03:00:14;;;;;;;4.32;2.65;;;9.90;99.90;;;;;;5032763;28;20029;-61
2022/05/25 03:02:40;;;;;;;7.65;2.97;;;9.90;99.90;;;;;;5018246;28;20052;-61
2022/05/25 03:05:07;;;;;;;7.05;2.80;;;9.90;99.90;;;;;;5030429;28;20038;-61
2022/05/25 03:07:35;;;;;;;8.40;2.58;;;9.90;99.90;;;;;;5034079;28;20032;-55
2022/05/25 03:10:00;;;;;;;5.93;2.63;;;9.90;99.90;;;;;;5021078;28;20114;-61
2022/05/25 03:12:26;;;;;;;7.30;2.90;;;9.90;99.90;;;;;;5033737;28;20100;-61
2022/05/25 03:14:51;;;;;;;3.83;3.00;;;9.90;99.90;;;;;;5028313;28;20079;-59
2022/05/25 03:17:17;;;;;;;9.48;3.42;;;9.90;99.90;;;;;;5028502;28;20116;-59
2022/05/25 03:19:49;;;;;;;6.50;3.50;;;9.90;99.90;;;;;;5026069;28;20040;-61
2022/05/25 03:22:15;;;;;;;4.57;2.83;;;9.90;99.90;;;;;;5028597;28;20021;-61
2022/05/25 03:24:40;;;;;;;5.95;3.00;;;10.00;99.90;;;;;;5033341;28;20039;-59
2022/05/25 03:27:06;;;;;;;3.53;2.97;;;10.00;99.90;;;;;;5027876;28;20120;-61
2022/05/25 03:29:32;;;;;;;5.05;3.15;;;10.00;99.90;;;;;;5026042;28;20021;-61
2022/05/25 03:31:58;;;;;;;7.57;3.00;;;10.00;99.90;;;;;;5032980;28;20037;-59
2022/05/25 03:34:24;;;;;;;5.60;3.25;;;10.00;99.90;;;;;;5028912;28;20025;-61
2022/05/25 03:36:54;;;;;;;7.78;3.40;;;10.10;99.90;;;;;;5030251;28;20026;-61
2022/05/25 03:39:24;;;;;;;6.70;3.00;;;10.10;99.90;;;;;;5026877;28;20024;-61
2022/05/25 03:41:59;;;;;;;4.13;3.05;;;10.10;99.90;;;;;;5016731;28;20131;-61
2022/05/25 03:44:24;;;;;;;6.47;2.90;;;10.10;99.90;;;;;;5030057;28;20507;-60
2022/05/25 03:46:51;;;;;;;4.53;2.95;;;10.10;99.90;;;;;;5029855;28;20045;-61
2022/05/25 03:49:17;;;;;;;3.33;2.40;;;10.10;99.90;;;;;;5026419;28;20045;-61
2022/05/25 03:51:43;;;;;;;4.30;3.03;;;10.20;99.90;;;;;;5024363;28;20561;-61
2022/05/25 03:54:10;;;;;;;5.90;2.75;;;10.20;99.90;;;;;;5024397;28;20601;-61
2022/05/25 03:56:35;;;;;;;6.43;3.92;;;10.20;99.90;;;;;;5030685;28;20026;-61
2022/05/25 03:59:01;;;;;;;6.45;3.13;;;10.30;99.90;;;;;;5028772;28;20138;-61
2022/05/25 04:01:27;;;;;;;9.75;3.22;;;10.40;99.90;;;;;;5028550;28;20281;-60
2022/05/25 04:03:52;;;;;;;4.97;2.75;;;10.50;99.90;;;;;;5029093;28;20072;-60
2022/05/25 04:06:18;;;;;;;5.28;2.33;;;10.50;99.90;;;;;;5026803;28;20088;-61
2022/05/25 04:08:43;;;;;;;4.13;2.25;;;10.60;99.90;;;;;;5030467;28;20068;-61
2022/05/25 04:11:09;;;;;;;6.88;2.38;;;10.60;99.90;;;;;;5026420;28;20030;-60
2022/05/25 04:13:34;;;;;;;3.45;2.53;;;10.60;99.90;;;;;;5029266;28;20040;-58
2022/05/25 04:16:00;;;;;;;8.05;2.15;;;10.60;99.90;;;;;;5028934;28;20037;-59
2022/05/25 04:18:25;;;;;;;6.55;2.70;;;10.60;99.90;;;;;;5031660;28;20029;-60
2022/05/25 04:20:51;;;;;;;4.57;2.05;;;10.60;99.90;;;;;;5027563;28;20030;-61
2022/05/25 04:23:16;;;;;;;8.95;2.45;;;10.60;99.90;;;;;;5026160;28;20272;-61
2022/05/25 04:25:42;;;;;;;4.75;2.60;;;10.70;99.90;;;;;;5030245;28;20029;-60
2022/05/25 04:28:08;;;;;;;3.72;1.90;;;10.80;99.90;;;;;;5027036;28;20022;-61
2022/05/25 04:30:34;;;;;;;3.65;2.50;;;10.90;99.90;;;;;;5020957;28;20028;-59
2022/05/25 04:33:01;;;;;;;3.78;2.13;;;10.90;99.90;;;;;;5032423;28;20021;-61
2022/05/25 04:35:27;;;;;;;6.07;2.33;;;11.00;99.90;;;;;;5028679;28;20026;-61
2022/05/25 04:37:54;;;;;;;7.25;2.10;;;11.10;99.90;;;;;;5030483;28;20025;-61
2022/05/25 04:40:22;;;;;;;1.92;1.60;;;11.40;99.90;;;;;;5031198;28;20025;-61
2022/05/25 04:42:49;;;;;;;5.43;1.55;;;12.10;99.90;;;;;;5005428;28;20060;-61
2022/05/25 04:45:17;;;;;;;3.25;2.17;;;12.90;99.90;;;;;;5020790;28;20056;-61
2022/05/25 04:47:43;;;;;;;3.20;1.73;;;13.70;99.90;;;;;;5038869;28;20028;-61
2022/05/25 04:50:10;;;;;;;2.85;1.88;;;14.80;99.90;;;;;;5028814;28;20622;-61
2022/05/25 04:52:37;;;;;;;1.63;1.23;;;15.90;99.90;;;;;;5028184;28;20498;-61
2022/05/25 04:55:07;;;;;;;6.53;1.60;;;16.90;99.90;;;;;;5029109;28;20036;-61
2022/05/25 04:57:32;;;;;;;7.13;1.35;;;17.60;99.90;;;;;;5026250;28;20029;-62
2022/05/25 05:00:01;;;;;;;3.83;1.10;;;18.00;99.90;;;;;;5037662;28;20032;-62
2022/05/25 05:02:30;;;;;;;4.50;1.13;;;18.30;98.90;;;;;;5023336;28;20534;-61
2022/05/25 05:04:56;;;;;;;3.22;1.00;;;19.00;98.60;;;;;;5032319;28;20033;-61
2022/05/25 05:07:30;;;;;;;2.13;1.10;;;19.90;97.30;;;;;;5020765;28;20256;-60
2022/05/25 05:09:55;;;;;;;4.72;1.30;;;20.30;94.30;;;;;;5023800;28;20550;-62
2022/05/25 05:12:21;;;;;;;2.33;1.35;;;21.30;94.30;;;;;;5034837;28;20029;-62
2022/05/25 05:14:46;;;;;;;3.53;1.20;;;21.90;90.60;;;;;;5038365;28;20065;-58
2022/05/25 05:17:12;;;;;;;1.67;1.13;;;22.40;89.70;;;;;;5028811;28;20041;-59
2022/05/25 05:19:37;;;;;;;1.83;1.08;;;22.30;86.70;;;;;;5033633;28;20061;-59
2022/05/25 05:22:03;;;;;;;3.33;1.27;;;22.50;86.50;;;;;;5027295;28;20022;-60
2022/05/25 05:24:31;;;;;;;3.53;1.30;;;22.70;83.30;;;;;;5036903;28;20405;-59
2022/05/25 05:26:57;;;;;;;3.88;1.23;;;22.40;82.60;;;;;;5028112;28;20459;-61
2022/05/25 05:29:24;;;;;;;1.17;1.08;;;22.50;83.50;;;;;;5043640;28;20081;-62
2022/05/25 05:31:50;;;;;;;5.15;1.33;;;22.60;79.30;;;;;;5034947;28;20390;-62
2022/05/25 05:34:16;;;;;;;5.82;2.03;;;22.70;78.10;;;;;;5021650;28;20033;-60
2022/05/25 05:36:49;;;;;;;4.00;1.40;;;22.50;80.40;;;;;;5032057;28;20037;-60
2022/05/25 05:39:17;;;;;;;5.22;1.58;;;22.10;80.90;;;;;;5032037;28;20034;-61
2022/05/25 05:41:48;;;;;;;7.15;1.70;;;22.50;79.70;;;;;;5006071;28;20041;-60
2022/05/25 05:44:18;;;;;;;3.43;1.50;;;22.70;78.50;;;;;;5032990;28;20501;-60
2022/05/25 05:46:45;;;;;;;3.42;1.40;;;22.60;76.80;;;;;;5024917;28;20025;-56
2022/05/25 05:49:12;;;;;;;4.03;1.45;;;22.50;77.50;;;;;;5043382;28;20009;-60
2022/05/25 05:51:40;;;;;;;5.80;1.40;;;23.00;76.70;;;;;;5028180;28;20032;-60
2022/05/25 05:54:06;;;;;;;6.13;1.52;;;23.00;75.70;;;;;;5031239;28;20033;-60
2022/05/25 05:56:34;;;;;;;3.08;1.60;;;22.80;74.80;;;;;;5032358;28;20026;-61
2022/05/25 05:59:00;;;;;;;4.22;1.23;;;22.60;75.00;;;;;;5027963;28;20032;-60
2022/05/25 06:01:26;;;;;;;4.32;1.70;;;22.70;77.20;;;;;;5030728;28;20028;-61
2022/05/25 06:03:52;;;;;;;4.00;2.13;;;23.00;75.10;;;;;;5031002;28;20770;-62
2022/05/25 06:06:18;;;;;;;3.60;1.30;;;22.80;76.00;;;;;;5028088;28;20036;-60
2022/05/25 06:08:46;;;;;;;8.13;2.10;;;23.20;75.10;;;;;;5034839;28;20029;-59
2022/05/25 06:11:13;;;;;;;5.10;1.50;;;23.70;74.00;;;;;;5032950;28;20025;-60
2022/05/25 06:13:39;;;;;;;5.50;2.17;;;24.20;73.50;;;;;;5031485;28;20022;-60
2022/05/25 06:21:33;;;;;;;2.30;1.60;;;23.40;73.10;;;;;;5030015;28;20037;-61
2022/05/25 06:23:59;;;;;;;6.75;2.10;;;23.50;75.40;;;;;;5028961;28;20017;-61
2022/05/25 06:26:30;;;;;;;5.70;2.25;;;23.40;72.10;;;;;;5027979;28;20032;-61
2022/05/25 06:28:59;;;;;;;4.10;2.28;;;23.60;73.30;;;;;;5030948;28;20075;-60
2022/05/25 06:31:25;;;;;;;5.07;2.05;;;23.80;72.60;;;;;;5033473;28;20466;-60
2022/05/25 06:33:51;;;;;;;7.53;2.25;;;24.00;70.70;;;;;;5033167;28;20021;-60
2022/05/25 06:36:26;;;;;;;5.68;2.60;;;24.20;70.20;;;;;;5030193;28;20033;-59
2022/05/25 06:38:52;;;;;;;5.70;1.95;;;24.30;70.40;;;;;;5027006;28;20067;-61
2022/05/25 06:41:18;;;;;;;3.90;2.13;;;25.00;69.50;;;;;;5028156;28;20034;-61
2022/05/25 06:43:45;;;;;;;3.60;1.88;;;24.50;69.40;;;;;;5003009;28;20057;-60
2022/05/25 06:46:11;;;;;;;5.85;2.55;;;24.20;70.40;;;;;;5032339;28;20025;-61
2022/05/25 06:48:38;;;;;;;18.00;2.92;;;24.20;70.00;;;;;;5018524;28;20021;-60
2022/05/25 06:51:18;;;;;;;5.47;2.88;;;23.90;70.50;;;;;;5031746;28;20504;-60
2022/05/25 06:53:44;;;;;;;5.90;2.33;;;24.20;70.20;;;;;;5037791;28;20122;-60
2022/05/25 06:56:10;;;;;;;7.35;2.20;;;25.10;69.30;;;;;;5022942;28;20137;-60
2022/05/25 06:58:36;;;;;;;3.60;1.70;;;26.60;66.60;;;;;;5025013;28;20493;-61
2022/05/25 07:01:03;;;;;;;6.07;2.15;;;27.30;64.20;;;;;;5029606;28;20033;-60
2022/05/25 07:03:29;;;;;;;6.07;2.17;;;25.90;63.20;;;;;;5025529;28;20037;-60
2022/05/25 07:05:54;;;;;;;5.40;1.90;;;25.50;66.10;;;;;;5033648;28;20087;-60
2022/05/25 07:08:20;;;;;;;6.45;2.22;;;25.80;64.60;;;;;;5023324;28;20029;-60
2022/05/25 07:10:46;;;;;;;4.60;2.20;;;25.80;64.30;;;;;;5033443;28;20104;-61
2022/05/25 07:13:13;;;;;;;3.75;1.98;;;24.80;65.40;;;;;;5025478;28;20065;-58
2022/05/25 07:15:38;;;;;;;5.35;1.98;;;24.70;65.90;;;;;;5027358;28;20115;-60
2022/05/25 07:18:04;;;;;;;3.97;1.70;;;25.20;64.90;;;;;;5028890;28;20503;-61
2022/05/25 07:20:30;;;;;;;3.30;1.83;;;25.70;65.00;;;;;;5024115;28;20779;-60
2022/05/25 07:22:55;;;;;;;6.53;1.35;;;27.20;62.80;;;;;;5031349;28;20391;-61
2022/05/25 07:25:21;;;;;;;4.25;2.05;;;26.90;61.40;;;;;;5029743;28;20373;-60
2022/05/25 07:27:47;;;;;;;5.97;1.27;;;26.90;60.90;;;;;;5030849;28;20025;-61
2022/05/25 07:30:13;;;;;;;3.35;1.40;;;27.40;58.00;;;;;;5027052;28;20085;-59
2022/05/25 07:32:40;;;;;;;1.90;0.90;;;26.90;57.60;;;;;;5031476;28;20725;-61
2022/05/25 07:35:07;;;;;;;3.40;1.38;;;27.20;60.10;;;;;;5024264;28;20029;-61
2022/05/25 07:37:37;;;;;;;2.80;1.10;;;26.80;58.10;;;;;;5031020;28;20025;-60
2022/05/25 07:40:16;;;;;;;1.05;0.70;;;27.10;58.90;;;;;;5023960;28;20036;-61
2022/05/25 07:42:45;;;;;;;2.15;0.88;;;26.70;57.60;;;;;;5013000;28;20038;-61
2022/05/25 07:45:11;;;;;;;1.70;0.95;;;26.40;56.20;;;;;;5026547;28;20022;-59
2022/05/25 07:47:37;;;;;;;2.03;0.82;;;25.60;59.00;;;;;;5029583;28;20045;-57
2022/05/25 07:50:04;;;;;;;2.13;0.80;;;26.10;58.40;;;;;;5027364;28;20045;-61
2022/05/25 07:52:34;;;;;;;0.95;0.75;;;26.20;57.40;;;;;;5026061;28;20016;-61
2022/05/25 07:55:00;;;;;;;2.88;0.90;;;25.90;57.70;;;;;;5030422;28;20018;-60
2022/05/25 07:57:25;;;;;;;1.23;0.70;;;26.20;57.00;;;;;;5026940;28;20026;-61
2022/05/25 07:59:51;;;;;;;2.53;0.82;;;26.70;56.90;;;;;;5022891;28;20056;-60
2022/05/25 08:07:54;;;;;;;1.75;0.60;;;27.60;57.10;;;;;;5031972;28;20422;-60
2022/05/25 08:10:25;;;;;;;1.73;0.80;;;27.60;55.00;;;;;;5033880;28;20100;-60
2022/05/25 08:12:55;;;;;;;0.93;0.70;;;27.20;54.70;;;;;;5026680;28;20017;-61
2022/05/25 08:15:21;;;;;;;1.23;0.77;;;27.00;56.30;;;;;;5018016;28;20011;-61
2022/05/25 08:17:47;;;;;;;1.95;0.77;;;27.30;55.70;;;;;;5028232;28;20038;-61
2022/05/25 08:20:12;;;;;;;2.65;0.75;;;26.40;56.30;;;;;;5027638;28;20806;-61
2022/05/25 08:22:39;;;;;;;1.63;0.70;;;26.70;55.10;;;;;;5028870;28;20044;-60
2022/05/25 08:25:06;;;;;;;1.65;0.65;;;26.60;55.20;;;;;;5022532;28;20037;-61
2022/05/25 08:27:33;;;;;;;2.17;0.77;;;26.60;56.30;;;;;;5026620;28;20025;-61
2022/05/25 08:29:59;;;;;;;2.20;0.80;;;26.90;55.60;;;;;;5024274;28;20032;-60
2022/05/25 08:32:25;;;;;;;1.17;0.52;;;26.80;54.60;;;;;;5026453;28;20032;-61
2022/05/25 08:34:50;;;;;;;1.75;0.70;;;26.70;52.80;;;;;;5026050;28;20507;-59
2022/05/25 08:37:16;;;;;;;1.08;0.38;;;28.10;54.90;;;;;;5027151;28;20044;-61
2022/05/25 08:39:42;;;;;;;1.05;0.60;;;27.20;53.70;;;;;;5027136;28;20048;-61
2022/05/25 08:42:14;;;;;;;3.00;0.60;;;26.90;54.10;;;;;;5019822;28;20041;-61
2022/05/25 08:44:42;;;;;;;0.82;0.45;;;27.20;55.60;;;;;;4998969;28;20077;-61
2022/05/25 08:47:09;;;;;;;1.77;0.60;;;27.00;55.00;;;;;;5028647;28;20128;-61
2022/05/25 08:49:39;;;;;;;1.50;0.47;;;26.90;53.60;;;;;;5020715;28;20107;-61
2022/05/25 08:52:21;;;;;;;0.50;0.50;;;26.40;53.70;;;;;;5026585;28;20049;-61
2022/05/25 08:54:47;;;;;;;1.15;0.60;;;27.00;53.50;;;;;;5022077;28;20034;-59
2022/05/25 08:57:21;;;;;;;1.42;0.50;;;27.00;52.20;;;;;;5015515;28;20557;-61
2022/05/25 08:59:53;;;;;;;1.45;0.63;;;27.20;53.20;;;;;;5021910;28;20025;-60
2022/05/25 09:02:39;;;;;;;1.98;0.43;;;26.90;51.30;;;;;;5025701;28;20506;-60
2022/05/25 09:05:16;;;;;;;1.17;0.43;;;27.10;53.00;;;;;;4991191;28;20045;-61
2022/05/25 09:08:16;;;;;;;1.67;0.40;;;27.00;53.50;;;;;;5023981;28;20044;-61
2022/05/25 09:10:49;;;;;;;0.70;0.45;;;26.10;52.90;;;;;;5026531;28;20021;-61
2022/05/25 09:13:20;;;;;;;1.08;0.45;;;26.10;54.60;;;;;;5027655;28;20071;-60
2022/05/25 09:18:37;;;;;;;1.27;0.60;;;26.20;53.60;;;;;;5027709;28;20570;-61
2022/05/25 09:21:05;;;;;;;0.95;0.40;;;26.30;55.50;;;;;;5027358;28;20083;-61
2022/05/25 09:23:31;;;;;;;1.13;0.40;;;26.70;54.20;;;;;;5027759;28;20463;-61
2022/05/25 09:25:58;;;;;;;3.53;0.57;;;26.80;54.00;;;;;;5025981;28;20017;-56
2022/05/25 09:28:30;;;;;;;3.97;0.52;;;26.10;53.90;;;;;;5027874;28;20460;-61
2022/05/25 09:31:00;;;;;;;1.17;0.47;;;25.20;53.90;;;;;;5022650;28;20033;-62
2022/05/25 09:33:35;;;;;;;2.88;0.40;;;25.00;55.20;;;;;;5025233;28;20026;-61
2022/05/25 09:36:14;;;;;;;0.82;0.50;;;24.90;55.40;;;;;;5020171;28;20087;-62
2022/05/25 09:39:00;;;;;;;1.38;0.52;;;24.40;56.10;;;;;;5020533;28;20065;-62
2022/05/25 09:41:29;;;;;;;1.40;0.47;;;24.70;56.10;;;;;;5027553;28;20461;-59
2022/05/25 09:43:58;;;;;;;5.25;0.25;;;24.30;54.60;;;;;;5003669;28;20045;-61
2022/05/25 09:46:49;;;;;;;1.65;0.40;;;24.50;54.60;;;;;;5028664;28;20029;-61
2022/05/25 09:49:27;;;;;;;2.33;0.43;;;25.10;55.40;;;;;;5024265;28;20499;-59
2022/05/25 09:51:54;;;;;;;0.57;0.30;;;25.70;55.00;;;;;;5027481;28;20029;-60
2022/05/25 09:54:54;;;;;;;1.48;0.32;;;25.70;52.30;;;;;;5021737;28;20041;-60
2022/05/25 09:57:31;;;;;;;1.23;0.40;;;24.80;53.70;;;;;;5012413;28;20065;-61
2022/05/25 10:00:02;;;;;;;1.90;0.40;;;24.60;55.30;;;;;;5030831;28;20390;-61
2022/05/25 10:02:50;;;;;;;1.35;0.40;;;24.50;56.40;;;;;;5032181;28;20025;-61
2022/05/25 10:05:26;;;;;;;1.23;0.50;;;24.60;56.60;;;;;;5022653;28;20036;-59
2022/05/25 10:08:26;;;;;;;2.10;0.30;;;24.70;55.40;;;;;;5030156;28;20025;-61
2022/05/25 10:10:56;;;;;;;1.80;0.30;;;24.00;55.70;;;;;;4993955;28;20038;-60
2022/05/25 10:13:25;;;;;;;0.95;0.40;;;24.30;57.90;;;;;;5030851;28;20028;-60
2022/05/25 10:15:51;;;;;;;2.33;1.20;;;24.60;56.60;;;;;;5028248;28;20033;-61
2022/05/25 10:18:35;;;;;;;3.03;0.47;;;23.90;55.50;;;;;;5022138;28;20021;-61
2022/05/25 10:21:02;;;;;;;1.05;0.50;;;23.50;57.10;;;;;;5026390;28;20156;-60
2022/05/25 10:23:28;;;;;;;1.60;0.88;;;23.60;58.40;;;;;;5028393;28;20043;-60
2022/05/25 10:26:09;;;;;;;0.50;0.45;;;23.40;58.10;;;;;;5025357;28;20128;-60
2022/05/25 10:28:51;;;;;;;1.10;0.50;;;23.50;55.10;;;;;;5025981;28;20041;-60
2022/05/25 10:37:07;;;;;;;0.77;0.35;;;23.40;58.40;;;;;;5025698;28;20032;-61
2022/05/25 10:39:36;;;;;;;6.65;0.80;;;23.60;56.60;;;;;;5028064;28;20394;-61
2022/05/25 10:42:17;;;;;;;3.05;0.50;;;23.00;56.40;;;;;;5025384;28;20036;-60
2022/05/25 10:45:02;;;;;;;2.80;0.43;;;22.70;58.50;;;;;;5009678;28;20038;-62
2022/05/25 10:47:50;;;;;;;0.85;0.60;;;22.00;58.30;;;;;;5024720;28;20406;-61
2022/05/25 10:50:24;;;;;;;0.90;0.77;;;22.30;60.70;;;;;;5022189;28;20020;-59
2022/05/25 10:53:28;;;;;;;1.08;0.98;;;22.10;58.70;;;;;;5023133;28;20036;-61
2022/05/25 10:56:01;;;;;;;;;;;22.30;59.50;;;;;;5022051;28;20044;-59
2022/05/25 10:58:44;;;;;;;1.05;0.85;;;22.10;60.70;;;;;;5027554;28;19915;-61
2022/05/25 11:01:10;;;;;;;0.52;0.52;;;22.00;59.30;;;;;;5018033;28;20041;-60
2022/05/25 11:04:12;;;;;;;1.92;0.50;;;21.60;59.90;;;;;;5027694;28;20510;-60
2022/05/25 11:06:55;;;;;;;1.55;0.70;;;21.60;60.60;;;;;;5026679;28;20434;-61
2022/05/25 11:09:54;;;;;;;2.10;0.70;;;22.20;60.90;;;;;;5031936;28;20096;-61
2022/05/25 11:12:42;;;;;;;0.57;0.57;;;22.30;60.20;;;;;;5031557;28;20017;-60
2022/05/25 11:15:16;;;;;;;2.05;0.65;;;21.70;58.30;;;;;;5029025;28;20136;-59
2022/05/25 11:17:47;;;;;;;2.17;0.70;;;21.20;59.20;;;;;;5022649;28;20403;-59
2022/05/25 11:20:33;;;;;;;1.80;0.82;;;21.10;59.90;;;;;;5017276;28;20030;-61
2022/05/25 11:23:24;;;;;;;1.85;0.70;;;21.20;61.50;;;;;;5027990;28;20100;-58
2022/05/25 11:26:06;;;;;;;1.83;0.82;;;21.40;59.70;;;;;;5013157;28;20038;-60
2022/05/25 11:28:44;;;;;;;1.33;0.60;;;21.20;61.00;;;;;;4993503;28;20495;-60
2022/05/25 11:31:36;;;;;;;1.35;0.70;;;21.50;61.00;;;;;;5022031;28;20486;-59
2022/05/25 11:34:23;;;;;;;1.05;0.68;;;21.70;60.40;;;;;;5024120;28;20025;-57
2022/05/25 11:37:29;;;;;;;0.52;0.52;;;21.80;59.70;;;;;;5020825;28;20391;-60
2022/05/25 11:40:29;;;;;;;0.70;0.63;;;22.00;60.50;;;;;;5012639;28;20088;-60
2022/05/25 11:43:15;;;;;;;2.00;0.80;;;22.10;57.80;;;;;;5012648;28;20073;-60
2022/05/25 11:45:40;;;;;;;0.80;0.50;;;22.20;59.50;;;;;;5019311;28;20034;-56
2022/05/25 11:48:06;;;;;;;1.30;0.68;;;22.30;58.20;;;;;;5013690;28;20678;-61
2022/05/25 11:50:46;;;;;;;1.73;0.50;;;22.80;59.10;;;;;;5027889;28;20539;-60
2022/05/25 11:53:21;;;;;;;2.05;0.60;;;23.40;59.50;;;;;;5022315;28;20679;-61
2022/05/25 11:55:47;;;;;;;1.48;0.60;;;23.30;56.10;;;;;;5026086;28;20029;-60
2022/05/25 11:58:18;;;;;;;1.30;0.30;;;23.50;58.10;;;;;;5021456;28;20036;-61
2022/05/25 12:01:12;;;;;;;2.28;0.60;;;23.60;57.10;;;;;;5013586;28;20060;-61
2022/05/25 12:04:28;;;;;;;3.90;0.50;;;23.50;55.50;;;;;;5014040;28;20106;-60
2022/05/25 12:07:32;;;;;;;3.38;0.85;;;23.60;55.20;;;;;;4988931;28;20105;-60
2022/05/25 12:10:32;;;;;;;0.90;0.52;;;23.00;53.90;;;;;;5015577;28;20033;-61
2022/05/25 12:13:21;;;;;;;1.17;0.60;;;23.10;56.20;;;;;;5009950;28;20088;-61
2022/05/25 12:16:03;;;;;;;10.50;0.90;;;23.20;56.90;;;;;;5027234;28;20049;-61
2022/05/25 12:18:50;;;;;;;0.43;0.32;;;23.30;54.30;;;;;;5030903;28;20025;-61
2022/05/25 12:21:21;;;;;;;1.92;0.50;;;23.50;56.70;;;;;;5020745;28;20036;-62
2022/05/25 12:23:51;;;;;;;1.52;0.52;;;23.60;53.90;;;;;;5017028;28;20022;-60
2022/05/25 12:26:22;;;;;;;5.00;0.50;;;23.80;55.50;;;;;;5011494;28;20479;-61
2022/05/25 12:28:50;;;;;;;0.90;0.50;;;23.60;56.00;;;;;;5017492;28;20029;-61
2022/05/25 12:31:21;;;;;;;1.75;0.80;;;23.40;55.10;;;;;;5020202;28;20567;-62
2022/05/25 12:33:48;;;;;;;0.75;0.50;;;22.90;54.90;;;;;;5025744;28;20045;-61
2022/05/25 12:36:16;;;;;;;3.35;0.90;;;22.40;57.30;;;;;;5021447;28;20019;-62
2022/05/25 12:38:41;;;;;;;0.75;0.50;;;22.40;56.30;;;;;;5024837;28;20029;-62
2022/05/25 12:41:25;;;;;;;2.33;0.57;;;22.20;56.30;;;;;;5022697;28;20048;-61
2022/05/25 12:43:54;;;;;;;2.10;0.80;;;22.30;57.40;;;;;;4999632;28;20046;-62
2022/05/25 12:49:34;;;;;;;2.63;0.60;;;22.30;58.30;;;;;;5004742;28;20052;-62
2022/05/25 12:52:00;;;;;;;1.75;0.60;;;22.00;56.70;;;;;;5007911;28;20026;-61
2022/05/25 12:54:32;;;;;;;2.85;0.90;;;22.00;59.60;;;;;;5001418;28;20516;-62
2022/05/25 12:57:00;;;;;;;2.33;0.80;;;21.80;58.30;;;;;;5001460;28;20022;-60
2022/05/25 12:59:37;;;;;;;2.25;0.90;;;21.90;58.20;;;;;;5006573;28;20026;-62
2022/05/25 13:02:21;;;;;;;5.22;2.42;;;22.20;58.60;;;;;;5004940;28;20034;-62
2022/05/25 13:04:48;;;;;;;;;;;22.10;57.70;;;;;;5004496;28;20026;-61
2022/05/25 13:07:42;;;;;;;0.70;0.70;;;22.10;57.20;;;;;;5006898;28;20016;-61
2022/05/25 13:10:10;;;;;;;;;;;21.90;56.70;;;;;;5009078;28;20407;-62
2022/05/25 13:12:39;;;;;;;0.93;0.60;;;21.80;58.50;;;;;;5006399;28;19910;-62
2022/05/25 13:15:24;;;;;;;2.10;0.57;;;21.80;57.70;;;;;;4994626;28;20046;-62
2022/05/25 13:17:57;;;;;;;2.63;0.57;;;21.90;58.40;;;;;;4999032;28;20062;-62
2022/05/25 13:20:30;;;;;;;0.65;0.65;;;21.80;57.10;;;;;;5006429;28;20450;-62
2022/05/25 13:22:58;;;;;;;0.60;0.60;;;21.70;59.00;;;;;;5009695;28;20103;-61
2022/05/25 13:25:49;;;;;;;1.38;0.57;;;21.50;56.80;;;;;;4978073;28;20047;-60
2022/05/25 13:28:24;;;;;;;7.03;0.68;;;21.60;58.10;;;;;;5000661;28;20022;-60
2022/05/25 13:30:55;;;;;;;1.80;0.60;;;21.80;57.00;;;;;;5002911;28;20500;-61
2022/05/25 13:33:23;;;;;;;1.15;0.60;;;21.80;57.00;;;;;;5006644;28;20037;-60
2022/05/25 13:35:56;;;;;;;1.58;0.82;;;21.90;57.60;;;;;;5003392;28;20109;-62
2022/05/25 13:38:35;;;;;;;0.73;0.52;;;22.00;57.50;;;;;;5006489;28;20026;-62